createdAt,value
2022-12-18T00:04:32.903Z,-4.80
2022-12-18T00:09:40.325Z,-4.80
2022-12-18T00:14:45.129Z,-4.80
2022-12-18T00:19:46.900Z,-4.78
2022-12-18T00:24:49.438Z,-4.77
2022-12-18T00:29:51.309Z,-4.77
2022-12-18T00:34:53.208Z,-4.75
2022-12-18T00:39:55.043Z,-4.74
2022-12-18T00:44:56.814Z,-4.73
2022-12-18T00:49:58.724Z,-4.76
2022-12-18T00:55:05.862Z,-4.75
2022-12-18T01:00:11.945Z,-4.70
2022-12-18T01:05:14.916Z,-4.66
2022-12-18T01:10:16.797Z,-4.67
2022-12-18T01:15:19.957Z,-4.73
2022-12-18T01:20:21.854Z,-4.75
2022-12-18T01:25:23.643Z,-4.74
2022-12-18T01:30:26.470Z,-4.75
2022-12-18T01:35:28.537Z,-4.76
2022-12-18T01:40:30.334Z,-4.72
2022-12-18T01:45:33.229Z,-4.73
2022-12-18T01:50:39.549Z,-4.76
2022-12-18T01:55:46.461Z,-4.75
2022-12-18T02:00:48.463Z,-4.75
2022-12-18T02:06:12.976Z,-4.76
2022-12-18T02:11:19.877Z,-4.73
2022-12-18T02:16:47.944Z,-4.79
2022-12-18T02:22:03.456Z,-4.79
2022-12-18T02:27:10.147Z,-4.72
2022-12-18T02:32:18.669Z,-4.69
2022-12-18T02:37:22.588Z,-4.69
2022-12-18T02:42:25.451Z,-4.63
2022-12-18T02:47:32.365Z,-4.69
2022-12-18T02:52:56.205Z,-4.70
2022-12-18T02:58:33.654Z,-4.71
2022-12-18T03:03:48.634Z,-4.83
2022-12-18T03:08:55.179Z,-4.87
2022-12-18T03:14:00.399Z,-4.82
2022-12-18T03:19:17.045Z,-4.78
2022-12-18T03:24:21.349Z,-4.90
2022-12-18T03:29:37.049Z,-4.99
2022-12-18T03:34:43.781Z,-4.98
2022-12-18T03:39:47.712Z,-5.03
2022-12-18T03:45:11.195Z,-5.03
2022-12-18T03:50:28.342Z,-4.92
2022-12-18T03:55:35.656Z,-4.85
2022-12-18T04:00:40.166Z,-4.83
2022-12-18T04:05:45.082Z,-4.85
2022-12-18T04:10:47.742Z,-4.93
2022-12-18T04:15:49.715Z,-4.96
2022-12-18T04:20:52.823Z,-4.94
2022-12-18T04:25:55.234Z,-4.96
2022-12-18T04:31:09.433Z,-4.92
2022-12-18T04:36:13.372Z,-4.91
2022-12-18T04:41:15.728Z,-4.88
2022-12-18T04:46:18.756Z,-4.84
2022-12-18T04:51:26.121Z,-4.85
2022-12-18T04:56:28.552Z,-4.87
2022-12-18T05:01:34.553Z,-4.83
2022-12-18T05:06:37.128Z,-4.79
2022-12-18T05:11:38.964Z,-4.75
2022-12-18T05:16:40.910Z,-4.79
2022-12-18T05:21:42.682Z,-4.90
2022-12-18T05:26:44.610Z,-4.94
2022-12-18T05:31:46.394Z,-4.92
2022-12-18T05:36:48.195Z,-4.95
2022-12-18T05:41:50.105Z,-4.96
2022-12-18T05:46:52.038Z,-4.97
2022-12-18T05:51:53.925Z,-5.05
2022-12-18T05:56:55.851Z,-5.10
2022-12-18T06:01:57.732Z,-5.07
2022-12-18T06:06:59.663Z,-5.12
2022-12-18T06:12:01.559Z,-5.20
2022-12-18T06:17:03.398Z,-5.25
2022-12-18T06:22:05.215Z,-5.27
2022-12-18T06:27:07.055Z,-5.26
2022-12-18T06:32:09.520Z,-5.28
2022-12-18T06:37:11.417Z,-5.30
2022-12-18T06:42:13.532Z,-5.28
2022-12-18T06:47:15.505Z,-5.26
2022-12-18T06:52:17.430Z,-5.21
2022-12-18T06:57:19.244Z,-5.17
2022-12-18T07:02:21.172Z,-5.09
2022-12-18T07:07:23.263Z,-5.05
2022-12-18T07:12:25.159Z,-5.00
2022-12-18T07:17:27.377Z,-4.96
2022-12-18T07:22:29.159Z,-4.97
2022-12-18T07:27:30.980Z,-4.95
2022-12-18T07:32:32.952Z,-4.89
2022-12-18T07:37:34.852Z,-4.76
2022-12-18T07:42:37.943Z,-4.67
2022-12-18T07:47:42.207Z,-4.57
2022-12-18T07:52:43.959Z,-4.49
2022-12-18T07:57:51.278Z,-4.39
2022-12-18T08:02:54.643Z,-4.45
2022-12-18T08:07:57.265Z,-4.54
2022-12-18T08:13:04.667Z,-4.29
2022-12-18T08:18:11.337Z,-3.92
2022-12-18T08:23:15.833Z,-3.96
2022-12-18T08:28:18.215Z,-4.06
2022-12-18T08:33:20.123Z,-4.09
2022-12-18T08:38:22.084Z,-4.16
2022-12-18T08:43:42.939Z,-4.14
2022-12-18T08:48:45.153Z,-4.14
2022-12-18T08:53:47.343Z,-4.13
2022-12-18T08:58:53.128Z,-4.13
2022-12-18T09:03:55.003Z,-4.23
2022-12-18T09:08:58.412Z,-4.17
2022-12-18T09:14:01.888Z,-3.97
2022-12-18T09:19:05.478Z,-3.86
2022-12-18T09:24:08.514Z,-3.80
2022-12-18T09:29:11.099Z,-3.71
2022-12-18T09:34:13.300Z,-3.59
2022-12-18T09:39:15.313Z,-3.50
2022-12-18T09:44:44.462Z,-3.50
2022-12-18T09:49:51.174Z,-3.40
2022-12-18T09:55:00.300Z,-3.20
2022-12-18T10:00:22.819Z,-2.97
2022-12-18T10:05:44.820Z,-2.76
2022-12-18T10:11:11.887Z,-2.55
2022-12-18T10:16:42.943Z,-2.47
2022-12-18T10:22:14.211Z,-2.56
2022-12-18T10:27:22.992Z,-2.63
2022-12-18T10:32:27.869Z,-2.66
2022-12-18T10:37:31.020Z,-2.61
2022-12-18T10:42:32.819Z,-2.55
2022-12-18T10:47:35.513Z,-2.46
2022-12-18T10:52:40.807Z,-2.40
2022-12-18T10:57:45.376Z,-2.44
2022-12-18T11:02:47.451Z,-2.56
2022-12-18T11:07:51.589Z,-2.66
2022-12-18T11:12:53.404Z,-2.80
2022-12-18T11:17:55.346Z,-2.83
2022-12-18T11:23:06.613Z,-2.84
2022-12-18T11:28:30.294Z,-2.92
2022-12-18T11:33:32.149Z,-2.93
2022-12-18T11:38:38.453Z,-3.04
2022-12-18T11:43:55.256Z,-3.07
2022-12-18T11:49:05.865Z,-2.95
2022-12-18T11:54:14.828Z,-2.88
2022-12-18T11:59:26.777Z,-2.84
2022-12-18T12:04:41.556Z,-2.79
2022-12-18T12:09:58.805Z,-2.76
2022-12-18T12:15:38.972Z,-2.62
2022-12-18T12:20:53.994Z,-2.55
2022-12-18T12:26:13.505Z,-2.59
2022-12-18T12:31:44.537Z,-2.65
2022-12-18T12:37:21.873Z,-2.74
2022-12-18T12:42:59.386Z,-2.77
2022-12-18T12:48:04.929Z,-2.85
2022-12-18T12:53:16.096Z,-2.89
2022-12-18T12:58:34.944Z,-2.99
2022-12-18T13:04:04.874Z,-3.06
2022-12-18T13:09:07.045Z,-3.21
2022-12-18T13:14:25.267Z,-3.31
2022-12-18T13:19:27.676Z,-3.42
2022-12-18T13:24:32.269Z,-3.48
2022-12-18T13:29:46.866Z,-3.55
2022-12-18T13:34:49.604Z,-3.61
2022-12-18T13:39:51.350Z,-3.69
2022-12-18T13:44:53.124Z,-3.83
2022-12-18T13:49:58.206Z,-3.94
2022-12-18T13:55:03.839Z,-4.06
2022-12-18T14:00:24.250Z,-4.22
2022-12-18T14:05:32.189Z,-4.41
2022-12-18T14:10:48.005Z,-4.59
2022-12-18T14:15:52.350Z,-4.77
2022-12-18T14:21:00.206Z,-4.93
2022-12-18T14:26:06.171Z,-5.10
2022-12-18T14:31:19.311Z,-5.28
2022-12-18T14:36:24.568Z,-5.49
2022-12-18T14:41:27.347Z,-5.71
2022-12-18T14:46:36.690Z,-5.90
2022-12-18T14:51:38.484Z,-6.06
2022-12-18T14:56:47.117Z,-6.22
2022-12-18T15:02:02.848Z,-6.35
2022-12-18T15:07:05.756Z,-6.53
2022-12-18T15:12:25.828Z,-6.72
2022-12-18T15:17:28.202Z,-6.93
2022-12-18T15:22:38.948Z,-7.14
2022-12-18T15:27:47.644Z,-7.34
2022-12-18T15:32:50.666Z,-7.55
2022-12-18T15:37:53.276Z,-7.77
2022-12-18T15:43:14.859Z,-7.85
2022-12-18T15:48:23.786Z,-7.99
2022-12-18T15:53:30.487Z,-8.10
2022-12-18T15:58:32.279Z,-8.20
2022-12-18T16:03:34.147Z,-8.30
2022-12-18T16:08:36.120Z,-8.38
2022-12-18T16:13:38.223Z,-8.45
2022-12-18T16:18:40.814Z,-8.55
2022-12-18T16:23:42.883Z,-8.67
2022-12-18T16:28:48.372Z,-8.79
2022-12-18T16:33:50.478Z,-8.93
2022-12-18T16:38:52.272Z,-9.05
2022-12-18T16:43:55.103Z,-9.13
2022-12-18T16:49:00.900Z,-9.24
2022-12-18T16:54:07.985Z,-9.39
2022-12-18T16:59:13.352Z,-9.55
2022-12-18T17:04:17.062Z,-9.76
2022-12-18T17:09:26.141Z,-9.94
2022-12-18T17:14:27.947Z,-10.12
2022-12-18T17:19:29.898Z,-10.29
2022-12-18T17:24:35.015Z,-10.40
2022-12-18T17:29:41.149Z,-10.53
2022-12-18T17:34:47.166Z,-10.61
2022-12-18T17:39:49.014Z,-10.65
2022-12-18T17:44:50.863Z,-10.69
2022-12-18T17:49:52.640Z,-10.78
2022-12-18T17:54:55.353Z,-10.92
2022-12-18T17:59:57.189Z,-11.02
2022-12-18T18:04:58.951Z,-11.13
2022-12-18T18:10:00.730Z,-11.26
2022-12-18T18:15:02.630Z,-11.37
2022-12-18T18:20:06.192Z,-11.45
2022-12-18T18:25:09.413Z,-11.54
2022-12-18T18:30:12.714Z,-11.60
2022-12-18T18:35:37.542Z,-11.61
2022-12-18T18:40:36.239Z,-11.58
2022-12-18T18:45:38.314Z,-11.47
2022-12-18T18:50:44.006Z,-11.37
2022-12-18T18:55:49.135Z,-11.34
2022-12-18T19:01:05.518Z,-11.33
2022-12-18T19:06:09.442Z,-11.30
2022-12-18T19:11:36.108Z,-11.23
2022-12-18T19:16:39.465Z,-11.09
2022-12-18T19:21:41.627Z,-11.03
2022-12-18T19:26:43.814Z,-11.03
2022-12-18T19:31:45.791Z,-11.06
2022-12-18T19:36:48.633Z,-11.11
2022-12-18T19:41:51.896Z,-11.19
2022-12-18T19:46:53.789Z,-11.30
2022-12-18T19:51:55.653Z,-11.46
2022-12-18T19:56:57.459Z,-11.57
2022-12-18T20:01:59.377Z,-11.62
2022-12-18T20:07:01.727Z,-11.64
2022-12-18T20:12:04.264Z,-11.69
2022-12-18T20:17:06.160Z,-11.71
2022-12-18T20:22:08.476Z,-11.66
2022-12-18T20:27:15.200Z,-11.57
2022-12-18T20:32:19.215Z,-11.53
2022-12-18T20:37:21.151Z,-11.45
2022-12-18T20:42:23.144Z,-11.35
2022-12-18T20:47:26.339Z,-11.28
2022-12-18T20:52:28.567Z,-11.25
2022-12-18T20:57:30.346Z,-11.22
2022-12-18T21:02:32.489Z,-11.14
2022-12-18T21:07:34.424Z,-11.07
2022-12-18T21:13:00.244Z,-11.02
2022-12-18T21:18:01.003Z,-11.01
2022-12-18T21:23:13.210Z,-11.01
2022-12-18T21:28:17.937Z,-11.03
2022-12-18T21:33:19.735Z,-11.07
2022-12-18T21:38:21.584Z,-11.08
2022-12-18T21:43:42.057Z,-11.01
2022-12-18T21:48:44.163Z,-10.84
2022-12-18T21:53:45.877Z,-10.70
2022-12-18T21:58:57.097Z,-10.51
2022-12-18T22:03:59.448Z,-10.35
2022-12-18T22:09:01.246Z,-10.30
2022-12-18T22:14:06.575Z,-10.32
2022-12-18T22:19:11.446Z,-10.30
2022-12-18T22:24:16.462Z,-10.31
2022-12-18T22:29:41.928Z,-10.30
2022-12-18T22:34:43.821Z,-10.25
2022-12-18T22:39:45.760Z,-10.23
2022-12-18T22:44:48.027Z,-10.22
2022-12-18T22:49:49.819Z,-10.24
2022-12-18T22:54:53.750Z,-10.27
2022-12-18T22:59:55.925Z,-10.30
2022-12-18T23:04:57.718Z,-10.27
2022-12-18T23:10:01.199Z,-10.25
2022-12-18T23:15:05.107Z,-10.26
2022-12-18T23:20:07.236Z,-10.24
2022-12-18T23:25:09.527Z,-10.22
2022-12-18T23:30:12.192Z,-10.21
2022-12-18T23:35:15.787Z,-10.17
2022-12-18T23:40:18.153Z,-10.17
2022-12-18T23:45:20.204Z,-10.24
2022-12-18T23:50:26.728Z,-10.30
2022-12-18T23:55:31.771Z,-10.44
